createdAt,value
2019-04-21T00:03:20.594Z,3.07
2019-04-21T00:13:34.519Z,3.03
2019-04-21T00:18:47.902Z,3.20
2019-04-21T00:24:03.871Z,3.30
2019-04-21T00:29:11.372Z,3.07
2019-04-21T00:33:50.189Z,3.17
2019-04-21T00:39:25.057Z,3.00
2019-04-21T00:44:08.736Z,3.13
2019-04-21T00:49:16.920Z,3.20
2019-04-21T00:54:35.868Z,3.20
2019-04-21T00:59:34.896Z,3.23
2019-04-21T01:04:43.221Z,2.73
2019-04-21T01:09:32.781Z,3.13
2019-04-21T01:14:53.950Z,2.97
2019-04-21T01:19:39.808Z,3.40
2019-04-21T01:24:33.037Z,2.93
2019-04-21T01:29:55.102Z,3.00
2019-04-21T01:34:51.638Z,3.10
2019-04-21T01:40:04.718Z,3.03
2019-04-21T01:44:58.264Z,3.70
2019-04-21T01:49:53.201Z,3.20
2019-04-21T01:55:08.299Z,3.50
2019-04-21T02:00:04.724Z,3.00
2019-04-21T02:05:26.514Z,3.33
2019-04-21T02:10:26.680Z,3.40
2019-04-21T02:15:31.191Z,3.40
2019-04-21T02:20:24.492Z,3.80
2019-04-21T02:25:31.734Z,3.53
2019-04-21T02:30:55.066Z,3.40
2019-04-21T02:36:07.052Z,3.60
2019-04-21T02:45:59.584Z,3.00
2019-04-21T02:50:50.756Z,2.80
2019-04-21T02:56:00.710Z,3.20
2019-04-21T03:01:14.535Z,3.00
2019-04-21T03:06:18.728Z,2.90
2019-04-21T03:11:25.099Z,3.00
2019-04-21T03:32:04.416Z,3.00
2019-04-21T03:42:00.255Z,2.50
2019-04-21T03:46:56.071Z,2.97
2019-04-21T03:51:45.805Z,2.80
2019-04-21T04:02:08.173Z,2.80
2019-04-21T04:07:11.096Z,2.90
2019-04-21T04:12:12.532Z,3.10
2019-04-21T04:17:21.707Z,3.13
2019-04-21T04:32:25.225Z,2.40
2019-04-21T04:37:32.661Z,2.70
2019-04-21T04:47:51.246Z,2.60
2019-04-21T04:57:57.325Z,2.83
2019-04-21T05:02:42.042Z,3.33
2019-04-21T05:07:52.344Z,3.13
2019-04-21T05:12:43.951Z,3.00
2019-04-21T05:17:55.384Z,2.63
2019-04-21T05:22:47.643Z,2.67
2019-04-21T05:27:42.937Z,3.57
2019-04-21T05:33:09.212Z,3.67
2019-04-21T05:38:01.408Z,4.47
2019-04-21T05:42:55.714Z,5.70
2019-04-21T05:48:18.888Z,4.50
2019-04-21T05:53:08.730Z,4.07
2019-04-21T05:58:14.493Z,4.33
2019-04-21T06:03:15.168Z,6.47
2019-04-21T06:08:17.913Z,3.80
2019-04-21T06:13:28.184Z,3.60
2019-04-21T06:18:36.441Z,4.20
2019-04-21T06:23:32.748Z,3.77
2019-04-21T06:33:41.724Z,4.03
2019-04-21T06:38:59.664Z,3.40
2019-04-21T06:43:56.696Z,3.53
2019-04-21T06:48:58.345Z,3.63
2019-04-21T06:59:01.324Z,3.53
2019-04-21T07:04:13.395Z,4.13
2019-04-21T07:09:15.925Z,3.70
2019-04-21T07:24:21.877Z,3.80
2019-04-21T07:29:21.877Z,3.50
2019-04-21T07:39:16.634Z,3.57
2019-04-21T07:44:23.014Z,3.30
2019-04-21T07:49:43.608Z,2.87
2019-04-21T07:54:44.323Z,3.00
2019-04-21T08:00:04.041Z,2.93
2019-04-21T08:09:51.129Z,2.90
2019-04-21T08:15:03.213Z,3.23
2019-04-21T08:19:53.085Z,2.13
2019-04-21T08:25:02.911Z,2.67
2019-04-21T08:30:05.027Z,2.60
2019-04-21T08:35:34.242Z,2.43
2019-04-21T08:45:15.277Z,2.30
2019-04-21T08:50:15.237Z,2.47
2019-04-21T08:55:35.062Z,2.70
2019-04-21T09:00:50.583Z,2.70
2019-04-21T09:05:53.984Z,2.60
2019-04-21T09:10:53.081Z,2.53
2019-04-21T09:15:52.364Z,2.67
2019-04-21T09:20:58.037Z,2.87
2019-04-21T09:25:57.445Z,2.53
2019-04-21T09:30:52.200Z,2.83
2019-04-21T09:35:55.613Z,2.80
2019-04-21T09:40:54.378Z,2.53
2019-04-21T09:45:54.277Z,3.43
2019-04-21T09:50:55.495Z,3.73
2019-04-21T09:56:01.299Z,2.90
2019-04-21T10:01:08.444Z,2.57
2019-04-21T10:06:04.321Z,2.10
2019-04-21T10:11:05.719Z,2.40
2019-04-21T10:16:11.492Z,2.50
2019-04-21T10:21:13.150Z,2.53
2019-04-21T10:26:14.640Z,2.60
2019-04-21T10:31:16.736Z,3.03
2019-04-21T10:36:19.436Z,2.30
2019-04-21T10:41:21.481Z,2.70
2019-04-21T10:46:22.887Z,2.40
2019-04-21T10:51:25.298Z,2.27
2019-04-21T10:56:31.547Z,2.47
2019-04-21T11:01:31.366Z,2.90
2019-04-21T11:06:34.618Z,2.20
2019-04-21T11:11:35.962Z,2.53
2019-04-21T11:16:37.273Z,2.50
2019-04-21T11:21:38.744Z,2.50
2019-04-21T11:26:40.165Z,2.73
2019-04-21T11:31:41.450Z,3.50
2019-04-21T11:36:43.794Z,2.60
2019-04-21T11:41:45.747Z,2.93
2019-04-21T11:46:46.959Z,2.93
2019-04-21T11:51:49.028Z,2.97
2019-04-21T11:56:50.654Z,3.13
2019-04-21T12:01:51.985Z,2.70
2019-04-21T12:06:54.587Z,2.40
2019-04-21T12:11:57.032Z,2.72
2019-04-21T12:16:59.300Z,2.98
2019-04-21T12:22:10.013Z,2.83
2019-04-21T12:27:04.094Z,2.77
2019-04-21T12:32:09.697Z,2.77
2019-04-21T12:37:11.056Z,2.60
2019-04-21T12:42:12.588Z,3.08
2019-04-21T12:47:14.176Z,2.70
2019-04-21T12:52:17.780Z,3.00
2019-04-21T12:57:21.303Z,2.80
2019-04-21T13:02:22.628Z,3.42
2019-04-21T13:07:23.727Z,3.10
2019-04-21T13:12:24.934Z,3.40
2019-04-21T13:17:26.130Z,3.37
2019-04-21T13:22:28.007Z,3.15
2019-04-21T13:27:29.301Z,3.27
2019-04-21T13:32:31.151Z,3.22
2019-04-21T13:37:33.273Z,3.40
2019-04-21T13:42:42.679Z,3.42
2019-04-21T13:47:40.775Z,3.30
2019-04-21T13:52:42.700Z,3.05
2019-04-21T13:57:44.457Z,3.12
2019-04-21T14:02:46.983Z,2.87
2019-04-21T14:07:48.270Z,3.22
2019-04-21T14:12:50.586Z,2.90
2019-04-21T14:17:53.065Z,3.25
2019-04-21T14:22:54.454Z,3.08
2019-04-21T14:27:56.426Z,3.10
2019-04-21T14:32:58.571Z,3.30
2019-04-21T14:38:00.522Z,3.00
2019-04-21T14:43:02.635Z,3.02
2019-04-21T14:48:07.145Z,2.95
2019-04-21T14:53:13.860Z,2.60
2019-04-21T14:58:15.175Z,3.00
2019-04-21T15:03:16.393Z,2.80
2019-04-21T15:08:17.719Z,2.58
2019-04-21T15:13:19.578Z,2.52
2019-04-21T15:18:21.058Z,2.80
2019-04-21T15:23:25.241Z,2.70
2019-04-21T15:28:26.285Z,2.85
2019-04-21T15:33:28.700Z,3.00
2019-04-21T15:38:29.998Z,3.02
2019-04-21T15:43:31.106Z,3.10
2019-04-21T15:48:33.085Z,2.65
2019-04-21T15:53:37.478Z,2.72
2019-04-21T15:58:52.763Z,2.75
2019-04-21T16:03:56.692Z,3.10
2019-04-21T16:08:59.298Z,2.70
2019-04-21T16:14:01.725Z,2.60
2019-04-21T16:19:03.940Z,2.87
2019-04-21T16:24:06.742Z,2.87
2019-04-21T16:29:09.068Z,2.77
2019-04-21T16:34:10.386Z,2.80
2019-04-21T16:39:11.673Z,2.60
2019-04-21T16:44:13.429Z,2.65
2019-04-21T16:49:15.868Z,3.00
2019-04-21T16:54:19.994Z,2.70
2019-04-21T16:59:30.530Z,2.90
2019-04-21T17:04:31.789Z,3.08
2019-04-21T17:09:32.900Z,3.02
2019-04-21T17:14:49.475Z,2.93
2019-04-21T17:19:44.986Z,2.73
2019-04-21T17:24:40.308Z,2.93
2019-04-21T17:29:43.105Z,2.77
2019-04-21T17:34:45.726Z,2.90
2019-04-21T17:39:47.275Z,2.90
2019-04-21T17:44:48.571Z,2.63
2019-04-21T17:49:51.578Z,2.73
2019-04-21T17:55:06.209Z,2.40
2019-04-21T18:00:28.782Z,2.90
2019-04-21T18:05:27.328Z,2.83
2019-04-21T18:10:27.654Z,3.07
2019-04-21T18:15:32.490Z,3.03
2019-04-21T18:20:21.968Z,2.97
2019-04-21T18:25:37.603Z,2.80
2019-04-21T18:30:46.595Z,3.47
2019-04-21T18:36:04.210Z,2.40
2019-04-21T18:41:07.601Z,2.30
2019-04-21T18:46:33.137Z,3.23
2019-04-21T18:51:35.964Z,3.83
2019-04-21T18:56:27.738Z,3.97
2019-04-21T19:01:32.840Z,3.33
2019-04-21T19:06:45.387Z,3.37
2019-04-21T19:11:53.461Z,3.90
2019-04-21T19:17:10.933Z,3.53
2019-04-21T19:22:00.100Z,2.93
2019-04-21T19:27:04.650Z,3.17
2019-04-21T19:32:08.838Z,3.07
2019-04-21T19:36:57.612Z,2.97
2019-04-21T19:42:03.133Z,2.97
2019-04-21T19:47:19.862Z,2.50
2019-04-21T19:52:07.488Z,2.87
2019-04-21T19:57:03.253Z,2.93
2019-04-21T20:02:04.662Z,3.17
2019-04-21T20:07:23.329Z,2.90
2019-04-21T20:12:33.209Z,2.70
2019-04-21T20:17:32.480Z,4.23
2019-04-21T20:22:16.770Z,2.80
2019-04-21T20:27:31.160Z,3.27
2019-04-21T20:32:43.018Z,3.40
2019-04-21T20:37:45.673Z,3.50
2019-04-21T20:42:42.732Z,3.07
2019-04-21T20:47:37.666Z,3.17
2019-04-21T20:52:55.180Z,3.30
2019-04-21T20:57:48.130Z,3.20
2019-04-21T21:03:02.545Z,2.90
2019-04-21T21:08:08.582Z,2.50
2019-04-21T21:13:14.522Z,3.57
2019-04-21T21:18:15.560Z,3.37
2019-04-21T21:23:02.823Z,4.20
2019-04-21T21:28:04.290Z,3.83
2019-04-21T21:33:17.405Z,3.43
2019-04-21T21:38:19.711Z,4.17
2019-04-21T21:43:08.231Z,3.20
2019-04-21T21:48:24.722Z,3.63
2019-04-21T21:53:16.183Z,3.90
2019-04-21T21:58:15.637Z,3.73
2019-04-21T22:03:24.399Z,3.47
2019-04-21T22:08:20.665Z,3.30
2019-04-21T22:13:31.905Z,3.23
2019-04-21T22:18:39.062Z,3.47
2019-04-21T22:23:42.779Z,3.17
2019-04-21T22:28:31.606Z,2.80
2019-04-21T22:33:40.274Z,2.63
2019-04-21T22:38:49.159Z,3.07
2019-04-21T22:43:43.782Z,2.97
2019-04-21T22:48:45.312Z,2.80
2019-04-21T22:53:49.028Z,2.57
2019-04-21T22:58:49.588Z,2.60
2019-04-21T23:03:56.882Z,3.20
2019-04-21T23:08:55.089Z,2.87
2019-04-21T23:14:02.516Z,2.60
2019-04-21T23:19:21.163Z,2.73
2019-04-21T23:24:26.213Z,2.60
2019-04-21T23:29:25.868Z,2.80
2019-04-21T23:34:10.857Z,2.90
2019-04-21T23:39:15.664Z,3.63
2019-04-21T23:44:18.714Z,2.80
2019-04-21T23:49:31.957Z,2.70
2019-04-21T23:54:21.247Z,2.90
2019-04-21T23:59:22.670Z,2.90
